Time;durP1;ratioP1;P1;durP2;ratioP2;P2;SDS_P1;SDS_P2;PMS_P1;PMS_P2;Temp;Humidity;BMP_temperature;BMP_pressure;BME280_temperature;BME280_humidity;BME280_pressure;Samples;Min_cycle;Max_cycle;Signal;HPM_P1;HPM_P2
2024/04/15 00:00:37;;;;;;;4.97;1.70;;;7.60;31.80;;;;;;5454972;26;20522;-73
2024/04/15 00:03:04;;;;;;;2.57;1.73;;;7.70;41.60;;;;;;5453574;26;20271;-71
2024/04/15 00:05:29;;;;;;;4.23;2.00;;;7.70;44.80;;;;;;5454771;26;20227;-70
2024/04/15 00:07:55;;;;;;;7.03;2.10;;;7.70;43.80;;;;;;5421978;26;20505;-71
2024/04/15 00:10:21;;;;;;;2.50;1.97;;;7.80;45.10;;;;;;5454238;26;20329;-71
2024/04/15 00:12:49;;;;;;;2.63;1.67;;;7.80;44.80;;;;;;5422924;26;20281;-73
2024/04/15 00:15:14;;;;;;;2.17;1.90;;;7.80;50.30;;;;;;5454425;26;20271;-71
2024/04/15 00:17:40;;;;;;;2.60;2.03;;;7.80;51.20;;;;;;5454482;26;20459;-75
2024/04/15 00:20:06;;;;;;;4.57;1.73;;;7.80;48.50;;;;;;5421388;26;20330;-72
2024/04/15 00:22:32;;;;;;;9.40;1.73;;;7.80;44.50;;;;;;5421820;26;20224;-70
2024/04/15 00:24:57;;;;;;;3.03;1.83;;;7.80;45.80;;;;;;5454266;26;20498;-73
2024/04/15 00:27:23;;;;;;;6.43;2.00;;;7.80;44.00;;;;;;5454514;26;20215;-73
2024/04/15 00:29:49;;;;;;;3.77;2.13;;;7.70;40.20;;;;;;5453162;26;20274;-70
2024/04/15 00:32:14;;;;;;;4.83;2.20;;;7.80;49.30;;;;;;5454175;26;20534;-72
2024/04/15 00:34:40;;;;;;;5.30;2.17;;;7.80;51.90;;;;;;5454342;26;20220;-71
2024/04/15 00:37:06;;;;;;;2.10;1.80;;;7.80;54.00;;;;;;5421126;26;20289;-73
2024/04/15 00:39:32;;;;;;;2.50;1.97;;;7.80;50.10;;;;;;5452143;26;20619;-74
2024/04/15 00:41:58;;;;;;;3.17;1.60;;;7.80;46.50;;;;;;5454269;26;20227;-73
2024/04/15 00:44:33;;;;;;;2.30;1.83;;;7.70;47.50;;;;;;5454088;26;20560;-73
2024/04/15 00:47:03;;;;;;;7.10;2.80;;;7.70;52.40;;;;;;5454037;26;20706;-74
2024/04/15 00:49:32;;;;;;;5.20;2.30;;;7.70;54.90;;;;;;5453175;26;20878;-73
2024/04/15 00:51:59;;;;;;;3.30;2.20;;;7.70;56.90;;;;;;5422301;26;20563;-73
2024/04/15 00:54:27;;;;;;;1.63;1.40;;;7.70;60.40;;;;;;5422086;26;21013;-71
2024/04/15 00:56:53;;;;;;;1.80;1.70;;;7.70;56.40;;;;;;5421050;26;20505;-74
2024/04/15 00:59:19;;;;;;;1.60;1.50;;;7.70;62.90;;;;;;5420998;26;20970;-70
2024/04/15 01:01:45;;;;;;;4.17;1.70;;;7.60;64.60;;;;;;5453893;26;20710;-74
2024/04/15 01:04:11;;;;;;;6.83;1.80;;;7.60;65.70;;;;;;5453972;26;20438;-71
2024/04/15 01:06:36;;;;;;;5.33;2.23;;;7.60;70.20;;;;;;5453699;26;20270;-74
2024/04/15 01:09:02;;;;;;;3.70;2.10;;;7.60;70.60;;;;;;5421039;26;20220;-74
2024/04/15 01:11:28;;;;;;;3.83;2.10;;;7.60;73.40;;;;;;5453797;26;20220;-73
2024/04/15 01:13:53;;;;;;;2.00;1.90;;;7.50;69.10;;;;;;5452928;26;20212;-73
2024/04/15 01:16:19;;;;;;;3.20;2.13;;;7.50;71.70;;;;;;5453409;26;20217;-73
2024/04/15 01:18:45;;;;;;;3.30;1.73;;;7.50;76.40;;;;;;5420771;26;20228;-72
2024/04/15 01:21:11;;;;;;;6.83;1.63;;;7.40;74.90;;;;;;5453401;26;20335;-71
2024/04/15 01:23:39;;;;;;;4.10;2.10;;;7.40;82.40;;;;;;5421712;26;20222;-72
2024/04/15 01:26:04;;;;;;;2.83;2.63;;;7.40;91.50;;;;;;5453584;26;20766;-74
2024/04/15 01:28:30;;;;;;;5.53;2.13;;;7.30;89.70;;;;;;5452348;26;20425;-72
2024/04/15 01:30:56;;;;;;;1.67;1.57;;;7.30;91.50;;;;;;5421266;26;20568;-71
2024/04/15 01:33:21;;;;;;;2.30;2.07;;;7.30;91.50;;;;;;5421057;26;20231;-70
2024/04/15 01:35:47;;;;;;;1.90;1.80;;;7.30;92.00;;;;;;5452811;26;20249;-70
2024/04/15 01:38:13;;;;;;;6.10;1.73;;;7.20;91.40;;;;;;5452473;26;20672;-73
2024/04/15 01:40:38;;;;;;;3.30;1.97;;;7.20;91.40;;;;;;5453196;26;20278;-73
2024/04/15 01:43:04;;;;;;;5.53;2.30;;;7.10;91.40;;;;;;5453018;26;20215;-71
2024/04/15 01:45:29;;;;;;;3.03;1.97;;;7.10;91.40;;;;;;5453236;26;20265;-73
2024/04/15 01:47:55;;;;;;;1.87;1.77;;;7.10;91.40;;;;;;5421036;26;20253;-73
2024/04/15 01:50:22;;;;;;;6.90;2.27;;;7.00;91.30;;;;;;5456389;26;20232;-73
2024/04/15 01:52:47;;;;;;;2.30;2.20;;;7.00;94.30;;;;;;5455585;26;20250;-72
2024/04/15 01:55:13;;;;;;;3.50;2.10;;;7.00;96.30;;;;;;5456342;26;20426;-73
2024/04/15 01:57:39;;;;;;;10.53;2.03;;;6.90;99.90;;;;;;5456456;26;20227;-71
2024/04/15 02:00:06;;;;;;;8.10;2.07;;;7.00;99.90;;;;;;5455690;26;20701;-70
2024/04/15 02:02:32;;;;;;;2.30;1.73;;;6.90;99.90;;;;;;5456388;26;20765;-70
2024/04/15 02:04:59;;;;;;;5.90;1.90;;;6.90;99.90;;;;;;5456251;26;20521;-73
2024/04/15 02:07:25;;;;;;;7.93;2.60;;;6.90;99.90;;;;;;5456406;26;20488;-73
2024/04/15 02:09:51;;;;;;;2.47;2.00;;;6.90;99.90;;;;;;5422648;26;20814;-70
2024/04/15 02:12:16;;;;;;;2.40;2.20;;;6.90;99.90;;;;;;5424378;26;20505;-73
2024/04/15 02:14:42;;;;;;;2.30;2.20;;;6.90;99.90;;;;;;5456611;26;20751;-71
2024/04/15 02:17:08;;;;;;;3.20;2.23;;;6.80;99.90;;;;;;5424231;26;20541;-74
2024/04/15 02:19:33;;;;;;;6.17;2.23;;;6.80;99.90;;;;;;5455058;26;20565;-74
2024/04/15 02:21:59;;;;;;;1.90;1.80;;;6.70;99.90;;;;;;5456187;26;20267;-70
2024/04/15 02:24:27;;;;;;;3.60;1.80;;;6.80;99.90;;;;;;5456115;26;20250;-73
2024/04/15 02:26:53;;;;;;;4.27;1.97;;;6.80;99.90;;;;;;5456422;26;20289;-73
2024/04/15 02:29:19;;;;;;;2.27;2.00;;;6.80;99.90;;;;;;5454098;26;21051;-71
2024/04/15 02:31:45;;;;;;;2.10;2.00;;;6.80;99.90;;;;;;5455996;26;20416;-70
2024/04/15 02:34:10;;;;;;;6.80;2.20;;;6.80;99.90;;;;;;5424163;26;20227;-74
2024/04/15 02:36:36;;;;;;;3.53;2.07;;;6.70;99.90;;;;;;5455857;26;20287;-73
2024/04/15 02:39:02;;;;;;;1.60;1.50;;;6.70;99.90;;;;;;5454892;26;20553;-70
2024/04/15 02:41:27;;;;;;;3.37;1.80;;;6.60;99.90;;;;;;5455847;26;20595;-73
2024/04/15 02:43:53;;;;;;;4.53;2.20;;;6.60;99.90;;;;;;5455808;26;20319;-73
2024/04/15 02:46:19;;;;;;;1.87;1.77;;;6.60;99.90;;;;;;5455594;26;20223;-71
2024/04/15 02:48:44;;;;;;;2.67;1.80;;;6.60;99.90;;;;;;5454247;26;20676;-73
2024/04/15 02:51:10;;;;;;;7.93;2.37;;;6.60;99.90;;;;;;5455614;26;20228;-70
2024/04/15 02:53:36;;;;;;;5.23;2.43;;;6.50;99.90;;;;;;5423713;26;20228;-73
2024/04/15 02:56:01;;;;;;;2.13;2.03;;;6.50;99.90;;;;;;5455698;26;20221;-73
2024/04/15 02:58:27;;;;;;;2.03;1.93;;;6.50;99.90;;;;;;5454612;26;20223;-70
2024/04/15 03:00:53;;;;;;;3.60;1.90;;;6.40;99.90;;;;;;5422920;26;20782;-71
2024/04/15 03:03:18;;;;;;;2.00;1.90;;;6.40;99.90;;;;;;5423867;26;20552;-70
2024/04/15 03:05:45;;;;;;;6.00;2.07;;;6.40;99.90;;;;;;5423364;26;20235;-74
2024/04/15 03:08:11;;;;;;;5.37;2.17;;;6.30;99.90;;;;;;5453717;26;20212;-71
2024/04/15 03:10:37;;;;;;;2.27;2.07;;;6.30;99.90;;;;;;5423544;26;21067;-70
2024/04/15 03:13:03;;;;;;;2.30;2.10;;;6.20;99.90;;;;;;5455376;26;20428;-74
2024/04/15 03:15:29;;;;;;;4.87;2.00;;;6.20;99.90;;;;;;5455298;26;20219;-70
2024/04/15 03:17:55;;;;;;;4.93;2.13;;;6.20;99.90;;;;;;5454597;26;20326;-74
2024/04/15 03:20:22;;;;;;;2.67;2.47;;;6.10;99.90;;;;;;5423432;26;20465;-73
2024/04/15 03:22:51;;;;;;;2.47;2.27;;;6.10;99.90;;;;;;5424070;26;20220;-73
2024/04/15 03:25:18;;;;;;;3.13;2.00;;;6.00;99.90;;;;;;5454276;26;20445;-70
2024/04/15 03:27:45;;;;;;;2.47;2.27;;;6.00;99.90;;;;;;5422922;26;20429;-70
2024/04/15 03:30:11;;;;;;;3.43;2.90;;;6.00;99.90;;;;;;5454545;26;21004;-71
2024/04/15 03:32:37;;;;;;;2.97;2.03;;;5.90;99.90;;;;;;5455061;26;20941;-70
2024/04/15 03:35:02;;;;;;;2.07;1.90;;;5.80;99.90;;;;;;5455053;26;20445;-70
2024/04/15 03:37:28;;;;;;;2.10;2.00;;;5.80;99.90;;;;;;5422285;26;20224;-73
2024/04/15 03:39:54;;;;;;;3.70;2.33;;;5.80;99.90;;;;;;5453734;26;20425;-74
2024/04/15 03:42:19;;;;;;;2.63;2.40;;;5.80;99.90;;;;;;5423124;26;20239;-70
2024/04/15 03:44:45;;;;;;;2.83;2.60;;;5.80;99.90;;;;;;5454051;26;20228;-71
2024/04/15 03:47:11;;;;;;;2.10;1.80;;;5.80;99.90;;;;;;5454845;26;20216;-73
2024/04/15 03:49:36;;;;;;;6.10;2.20;;;5.80;99.90;;;;;;5453782;26;20235;-73
2024/04/15 03:52:02;;;;;;;8.23;2.40;;;5.80;99.90;;;;;;5454870;26;20265;-73
2024/04/15 03:54:28;;;;;;;1.87;1.77;;;5.80;99.90;;;;;;5454768;26;20216;-74
2024/04/15 03:56:54;;;;;;;6.57;2.70;;;5.80;99.90;;;;;;5422927;26;20676;-73
2024/04/15 03:59:19;;;;;;;3.10;2.83;;;5.80;99.90;;;;;;5421899;26;20296;-73
2024/04/15 04:01:45;;;;;;;3.50;2.00;;;5.70;99.90;;;;;;5454550;26;20501;-70
2024/04/15 04:04:11;;;;;;;2.70;2.13;;;5.70;99.90;;;;;;5453577;26;20223;-70
2024/04/15 04:06:37;;;;;;;2.97;2.77;;;5.60;99.90;;;;;;5454796;26;20216;-73
2024/04/15 04:09:02;;;;;;;4.80;2.53;;;5.50;99.90;;;;;;5453468;26;20332;-70
2024/04/15 04:11:28;;;;;;;4.77;3.67;;;5.50;99.90;;;;;;5453044;26;20211;-69
2024/04/15 04:13:54;;;;;;;3.40;2.90;;;5.50;99.90;;;;;;5422789;26;20313;-71
2024/04/15 04:16:21;;;;;;;2.80;2.60;;;5.50;99.90;;;;;;5422450;26;20227;-71
2024/04/15 04:18:47;;;;;;;2.50;2.40;;;5.50;99.90;;;;;;5421879;26;20258;-73
2024/04/15 04:21:13;;;;;;;2.90;2.50;;;5.40;99.90;;;;;;5454418;26;20460;-73
2024/04/15 04:23:39;;;;;;;2.40;2.20;;;5.40;99.90;;;;;;5453328;26;20478;-73
2024/04/15 04:26:05;;;;;;;7.07;3.20;;;5.40;99.90;;;;;;5454492;26;20449;-72
2024/04/15 04:28:31;;;;;;;3.73;2.63;;;5.40;99.90;;;;;;5453229;26;20785;-71
2024/04/15 04:31:03;;;;;;;3.30;3.00;;;5.40;99.90;;;;;;5454244;26;20476;-73
2024/04/15 04:33:30;;;;;;;5.97;3.30;;;5.50;99.90;;;;;;5454448;26;20473;-73
2024/04/15 04:35:56;;;;;;;5.50;2.53;;;5.40;99.90;;;;;;5454181;26;20441;-73
2024/04/15 04:38:22;;;;;;;4.30;2.63;;;5.40;99.90;;;;;;5452367;26;20535;-73
2024/04/15 04:40:56;;;;;;;3.47;2.43;;;5.40;99.90;;;;;;5454319;26;20231;-70
2024/04/15 04:43:21;;;;;;;4.07;3.00;;;5.50;99.90;;;;;;5454247;26;20601;-70
2024/04/15 04:45:47;;;;;;;5.40;3.10;;;5.50;99.90;;;;;;5454056;26;20449;-70
2024/04/15 04:48:12;;;;;;;4.77;4.00;;;5.50;99.90;;;;;;5453042;26;20215;-73
2024/04/15 04:50:38;;;;;;;2.50;2.30;;;5.60;99.90;;;;;;5453959;26;20231;-73
2024/04/15 04:53:04;;;;;;;3.07;2.77;;;5.60;99.90;;;;;;5422078;26;20299;-70
2024/04/15 04:55:31;;;;;;;12.60;3.17;;;5.60;99.90;;;;;;5453017;26;20262;-73
2024/04/15 04:57:57;;;;;;;7.67;3.13;;;5.50;99.90;;;;;;5452931;26;20216;-71
2024/04/15 05:00:23;;;;;;;5.30;3.03;;;5.50;99.90;;;;;;5453791;26;20791;-73
2024/04/15 05:02:50;;;;;;;12.60;3.43;;;5.50;99.90;;;;;;5453809;26;20231;-70
2024/04/15 05:05:15;;;;;;;7.53;2.90;;;5.50;99.90;;;;;;5453748;26;20514;-73
2024/04/15 05:07:41;;;;;;;7.83;2.90;;;5.50;99.90;;;;;;5453546;26;20216;-70
2024/04/15 05:10:06;;;;;;;8.43;3.23;;;5.60;99.90;;;;;;5421260;26;20243;-70
2024/04/15 05:12:32;;;;;;;2.67;2.30;;;5.60;99.90;;;;;;5452636;26;20262;-71
2024/04/15 05:14:58;;;;;;;5.83;2.93;;;5.60;99.90;;;;;;5453452;26;20265;-70
2024/04/15 05:17:24;;;;;;;9.60;4.07;;;5.70;99.90;;;;;;5453990;26;20586;-70
2024/04/15 05:19:49;;;;;;;3.30;3.00;;;5.70;99.90;;;;;;5452485;26;20265;-73
2024/04/15 05:22:15;;;;;;;3.47;2.80;;;5.70;99.90;;;;;;5453537;26;20211;-73
2024/04/15 05:24:41;;;;;;;6.40;2.80;;;5.70;99.90;;;;;;5453147;26;20615;-73
2024/04/15 05:27:06;;;;;;;2.37;2.17;;;5.70;99.90;;;;;;5453599;26;20545;-70
2024/04/15 05:29:32;;;;;;;3.93;2.80;;;5.70;99.90;;;;;;5452160;26;20227;-71
2024/04/15 05:31:57;;;;;;;6.80;2.53;;;5.70;99.90;;;;;;5452792;26;20223;-73
2024/04/15 05:34:23;;;;;;;2.57;2.37;;;5.80;99.90;;;;;;5453353;26;20266;-70
2024/04/15 05:36:49;;;;;;;5.93;2.50;;;5.90;99.90;;;;;;5453213;26;20270;-70
2024/04/15 05:39:15;;;;;;;2.30;2.20;;;6.00;99.90;;;;;;5452190;26;20332;-70
2024/04/15 05:41:40;;;;;;;3.57;2.67;;;6.10;99.90;;;;;;5453095;26;20437;-73
2024/04/15 05:44:06;;;;;;;9.07;2.33;;;6.10;99.90;;;;;;5453342;26;20258;-73
2024/04/15 05:46:35;;;;;;;2.90;1.97;;;6.10;99.90;;;;;;5452441;26;20254;-71
2024/04/15 05:49:01;;;;;;;5.43;2.30;;;6.10;99.90;;;;;;5419786;26;21033;-74
2024/04/15 05:51:27;;;;;;;2.83;2.63;;;6.20;99.90;;;;;;5421485;26;20449;-70
2024/04/15 05:53:53;;;;;;;2.83;2.27;;;6.10;99.90;;;;;;5452892;26;20681;-73
2024/04/15 05:56:20;;;;;;;10.20;2.73;;;6.10;99.90;;;;;;5420981;26;20568;-70
2024/04/15 05:58:47;;;;;;;5.50;2.03;;;6.00;99.90;;;;;;5452020;26;20501;-71
2024/04/15 06:01:12;;;;;;;6.20;2.40;;;6.10;99.90;;;;;;5452685;26;20457;-74
2024/04/15 06:03:38;;;;;;;23.50;2.70;;;6.20;99.90;;;;;;5452629;26;20446;-70
2024/04/15 06:06:04;;;;;;;5.83;3.13;;;6.30;99.90;;;;;;5451993;26;20215;-70
2024/04/15 06:08:29;;;;;;;2.57;2.37;;;6.40;99.90;;;;;;5451626;26;20215;-73
2024/04/15 06:10:55;;;;;;;8.83;2.40;;;6.50;99.90;;;;;;5452566;26;20235;-73
2024/04/15 06:13:21;;;;;;;2.83;2.63;;;6.60;99.90;;;;;;5452737;26;20215;-70
2024/04/15 06:15:47;;;;;;;2.90;2.30;;;6.70;99.90;;;;;;5452388;26;20603;-70
2024/04/15 06:18:13;;;;;;;4.43;2.40;;;6.70;99.90;;;;;;5451600;26;20785;-70
2024/04/15 06:20:40;;;;;;;2.37;2.17;;;6.80;99.90;;;;;;5451606;26;20441;-73
2024/04/15 06:23:06;;;;;;;5.30;2.40;;;6.80;99.90;;;;;;5452218;26;20215;-73
2024/04/15 06:25:31;;;;;;;9.60;2.23;;;6.80;99.90;;;;;;5452492;26;20485;-73
2024/04/15 06:27:57;;;;;;;5.50;2.83;;;6.90;99.90;;;;;;5451327;26;20212;-74
2024/04/15 06:30:23;;;;;;;8.07;3.17;;;6.90;99.90;;;;;;5452291;26;20587;-73
2024/04/15 06:32:48;;;;;;;4.20;2.17;;;6.90;99.90;;;;;;5452439;26;20216;-73
2024/04/15 06:35:14;;;;;;;3.50;2.53;;;7.00;99.90;;;;;;5453178;26;20227;-73
2024/04/15 06:37:40;;;;;;;5.03;1.97;;;7.10;99.90;;;;;;5455454;26;20215;-74
2024/04/15 06:40:06;;;;;;;2.20;2.10;;;7.10;99.90;;;;;;5454546;26;20231;-74
2024/04/15 06:42:32;;;;;;;2.10;2.00;;;7.20;99.90;;;;;;5455791;26;20212;-71
2024/04/15 06:44:57;;;;;;;2.50;2.30;;;7.30;99.90;;;;;;5455763;26;20896;-73
2024/04/15 06:47:23;;;;;;;9.63;2.23;;;7.40;99.90;;;;;;5455694;26;20211;-73
2024/04/15 06:49:49;;;;;;;3.27;2.23;;;7.50;99.90;;;;;;5454642;26;20230;-69
2024/04/15 06:52:14;;;;;;;4.37;2.40;;;7.60;99.90;;;;;;5455767;26;20211;-73
2024/04/15 06:54:42;;;;;;;4.37;3.47;;;7.60;99.90;;;;;;5424316;26;20264;-74
2024/04/15 06:57:08;;;;;;;3.03;2.10;;;7.70;99.90;;;;;;5454856;26;20306;-71
2024/04/15 06:59:33;;;;;;;3.57;2.50;;;7.70;99.90;;;;;;5454522;26;20460;-71
2024/04/15 07:01:59;;;;;;;3.33;2.70;;;7.80;99.90;;;;;;5455926;26;20453;-70
2024/04/15 07:04:25;;;;;;;4.03;2.17;;;7.90;99.90;;;;;;5455333;26;20223;-70
2024/04/15 07:06:50;;;;;;;11.70;2.10;;;8.00;99.90;;;;;;5455536;26;20216;-72
2024/04/15 07:09:16;;;;;;;2.80;2.00;;;8.00;97.90;;;;;;5454621;26;20262;-69
2024/04/15 07:11:42;;;;;;;2.67;1.83;;;8.10;91.70;;;;;;5455377;26;20212;-73
2024/04/15 07:14:08;;;;;;;4.30;2.00;;;8.20;91.70;;;;;;5455506;26;20232;-74
2024/04/15 07:16:33;;;;;;;3.80;2.20;;;8.30;91.80;;;;;;5454106;26;20289;-73
2024/04/15 07:18:59;;;;;;;5.27;1.80;;;8.40;91.80;;;;;;5422801;26;20253;-73
2024/04/15 07:21:25;;;;;;;8.83;2.37;;;8.50;91.80;;;;;;5455301;26;20217;-70
2024/04/15 07:23:50;;;;;;;2.70;2.50;;;8.50;82.10;;;;;;5455114;26;20221;-69
2024/04/15 07:26:16;;;;;;;5.47;2.47;;;8.60;68.90;;;;;;5455186;26;20268;-73
2024/04/15 07:28:41;;;;;;;9.13;2.73;;;8.70;60.80;;;;;;5454648;26;20216;-73
2024/04/15 07:31:07;;;;;;;1.93;1.83;;;8.80;53.20;;;;;;5455104;26;20277;-73
2024/04/15 07:33:33;;;;;;;3.00;2.57;;;8.70;45.10;;;;;;5455003;26;20220;-73
2024/04/15 07:36:00;;;;;;;2.17;2.07;;;8.80;45.00;;;;;;5453529;26;20227;-69
2024/04/15 07:38:26;;;;;;;9.53;2.33;;;8.90;56.50;;;;;;5422467;26;20546;-70
2024/04/15 07:40:52;;;;;;;9.80;2.03;;;9.00;49.90;;;;;;5454911;26;20435;-71
2024/04/15 07:43:18;;;;;;;5.03;1.90;;;9.00;33.40;;;;;;5455027;26;20458;-69
2024/04/15 07:45:44;;;;;;;6.93;2.50;;;9.10;28.60;;;;;;5454460;26;20410;-73
2024/04/15 07:48:10;;;;;;;2.40;2.20;;;9.10;13.20;;;;;;5454273;26;20220;-69
2024/04/15 07:50:36;;;;;;;2.50;2.00;;;9.20;1.00;;;;;;5454739;26;20458;-70
2024/04/15 07:53:02;;;;;;;4.17;1.87;;;9.20;1.00;;;;;;5453658;26;20918;-69
2024/04/15 07:55:27;;;;;;;2.00;1.87;;;9.20;1.00;;;;;;5423025;26;20271;-69
2024/04/15 07:57:55;;;;;;;5.20;2.47;;;9.30;1.00;;;;;;5453841;26;20213;-70
2024/04/15 08:00:20;;;;;;;2.10;1.90;;;9.40;1.00;;;;;;5454463;26;20240;-74
2024/04/15 08:02:46;;;;;;;7.87;2.50;;;9.60;1.00;;;;;;5454902;26;20413;-74
2024/04/15 08:05:13;;;;;;;3.07;2.87;;;9.70;1.00;;;;;;5454528;26;20342;-69
2024/04/15 08:07:38;;;;;;;2.03;1.93;;;9.80;1.00;;;;;;5422585;26;20574;-72
2024/04/15 08:10:05;;;;;;;3.53;2.40;;;9.80;1.00;;;;;;5453138;26;20454;-70
2024/04/15 08:12:30;;;;;;;2.60;1.50;;;9.90;1.00;;;;;;5422829;26;20234;-73
2024/04/15 08:14:57;;;;;;;2.93;1.90;;;10.00;1.00;;;;;;5454440;26;20436;-73
2024/04/15 08:17:23;;;;;;;3.37;1.90;;;10.20;1.00;;;;;;5454557;26;20291;-70
2024/04/15 08:19:48;;;;;;;5.50;1.70;;;10.20;1.00;;;;;;5453573;26;20442;-73
2024/04/15 08:22:14;;;;;;;10.13;2.13;;;10.20;1.00;;;;;;5422473;26;20230;-71
2024/04/15 08:24:40;;;;;;;2.93;1.80;;;10.20;1.00;;;;;;5454588;26;20268;-70
2024/04/15 08:27:05;;;;;;;1.90;1.70;;;10.30;1.00;;;;;;5454306;26;20731;-70
2024/04/15 08:29:31;;;;;;;2.00;1.70;;;10.30;1.00;;;;;;5420810;26;20261;-70
2024/04/15 08:31:57;;;;;;;6.93;2.73;;;10.30;1.00;;;;;;5454236;26;20215;-70
2024/04/15 08:34:23;;;;;;;1.60;1.50;;;10.50;1.00;;;;;;5454186;26;20267;-73
2024/04/15 08:36:48;;;;;;;3.80;1.63;;;10.40;1.00;;;;;;5454220;26;20476;-70
2024/04/15 08:39:14;;;;;;;3.50;1.90;;;10.40;1.00;;;;;;5453608;26;20241;-74
2024/04/15 08:41:55;;;;;;;4.60;1.77;;;10.50;1.00;;;;;;5422314;26;20246;-74
2024/04/15 08:44:25;;;;;;;2.13;2.03;;;10.50;1.00;;;;;;5453609;26;20255;-70
2024/04/15 08:46:52;;;;;;;2.73;1.77;;;10.60;1.00;;;;;;5421186;26;20428;-74
2024/04/15 08:49:18;;;;;;;2.30;2.20;;;10.80;1.00;;;;;;5453009;26;20942;-74
2024/04/15 08:51:45;;;;;;;5.73;1.67;;;10.90;1.00;;;;;;5422049;26;20518;-72
2024/04/15 08:54:11;;;;;;;4.10;2.03;;;11.00;1.00;;;;;;5453982;26;20432;-73
2024/04/15 08:56:42;;;;;;;1.60;1.50;;;11.20;1.00;;;;;;5421948;26;20426;-70
2024/04/15 08:59:10;;;;;;;2.90;1.70;;;11.40;1.00;;;;;;5451886;26;20541;-71
2024/04/15 09:01:37;;;;;;;2.13;1.50;;;11.40;1.00;;;;;;5421900;26;20450;-72
2024/04/15 09:04:04;;;;;;;9.60;2.30;;;11.60;1.00;;;;;;5452977;26;20549;-72
2024/04/15 09:06:29;;;;;;;3.20;1.90;;;11.80;1.00;;;;;;5453681;26;20438;-73
2024/04/15 09:08:55;;;;;;;1.50;1.40;;;11.90;1.00;;;;;;5452876;26;20434;-74
2024/04/15 09:11:22;;;;;;;1.70;1.60;;;12.00;1.00;;;;;;5421878;26;20252;-73
2024/04/15 09:13:49;;;;;;;2.30;1.40;;;12.30;1.00;;;;;;5421342;26;20252;-73
2024/04/15 09:16:15;;;;;;;1.40;1.30;;;12.70;1.00;;;;;;5453602;26;20443;-73
2024/04/15 09:18:43;;;;;;;1.30;1.20;;;13.10;1.00;;;;;;5452613;26;20807;-72
2024/04/15 09:21:10;;;;;;;1.40;1.30;;;13.20;1.00;;;;;;5452994;26;20231;-73
2024/04/15 09:23:36;;;;;;;1.10;1.00;;;13.30;1.00;;;;;;5453079;26;20436;-72
2024/04/15 09:26:02;;;;;;;2.47;1.60;;;13.40;1.00;;;;;;5453309;26;20453;-73
2024/04/15 09:28:28;;;;;;;2.10;1.20;;;13.60;99.90;;;;;;5420981;26;20491;-74
2024/04/15 09:30:55;;;;;;;2.13;1.40;;;13.80;99.90;;;;;;5453013;26;20460;-73
2024/04/15 09:33:22;;;;;;;7.13;1.63;;;14.20;99.90;;;;;;5453332;26;20493;-70
2024/04/15 09:35:48;;;;;;;1.60;1.50;;;14.60;99.90;;;;;;5453312;26;20460;-74
2024/04/15 09:38:15;;;;;;;5.87;2.53;;;14.80;99.90;;;;;;5420742;26;20443;-73
2024/04/15 09:40:41;;;;;;;2.27;1.50;;;14.70;99.90;;;;;;5420147;26;20520;-74
2024/04/15 09:43:11;;;;;;;1.97;1.37;;;14.80;99.90;;;;;;5453232;26;20593;-74
2024/04/15 09:45:37;;;;;;;3.57;2.07;;;14.40;99.90;;;;;;5421374;26;20512;-72
2024/04/15 09:48:03;;;;;;;5.00;1.67;;;14.00;99.90;;;;;;5420411;26;21007;-73
2024/04/15 09:50:31;;;;;;;3.77;1.50;;;14.00;99.90;;;;;;5453011;26;20503;-73
2024/04/15 09:52:58;;;;;;;1.50;1.30;;;14.50;99.90;;;;;;5452911;26;20441;-72
2024/04/15 09:55:33;;;;;;;2.00;1.80;;;14.50;99.90;;;;;;5452970;26;20494;-74
2024/04/15 09:58:02;;;;;;;1.77;1.60;;;14.50;99.90;;;;;;5452035;26;20493;-72
2024/04/15 10:00:29;;;;;;;4.20;1.87;;;14.50;99.90;;;;;;5419999;26;21067;-70
2024/04/15 10:03:05;;;;;;;2.13;1.93;;;14.20;99.90;;;;;;5452605;26;20448;-74
2024/04/15 10:05:35;;;;;;;7.00;2.10;;;13.60;99.90;;;;;;5452694;26;20774;-71
2024/04/15 10:08:00;;;;;;;4.17;2.80;;;13.20;99.90;;;;;;5452022;26;20485;-74
2024/04/15 10:10:28;;;;;;;3.30;1.97;;;13.00;99.90;;;;;;5455469;26;20468;-73
2024/04/15 10:12:58;;;;;;;2.57;1.80;;;12.90;99.90;;;;;;5456114;26;20253;-74
2024/04/15 10:15:25;;;;;;;2.20;1.77;;;12.90;99.90;;;;;;5456149;26;20531;-73
2024/04/15 10:18:07;;;;;;;8.57;2.20;;;13.00;99.90;;;;;;5454653;26;20437;-74
2024/04/15 10:20:39;;;;;;;6.07;2.10;;;13.00;99.90;;;;;;5424445;26;20466;-73
2024/04/15 10:23:08;;;;;;;2.73;1.80;;;12.90;99.90;;;;;;5456470;26;20556;-73
2024/04/15 10:25:38;;;;;;;1.63;1.53;;;12.90;99.90;;;;;;5456100;26;20533;-72
2024/04/15 10:28:08;;;;;;;1.47;1.37;;;13.00;99.90;;;;;;5455185;26;20555;-72
2024/04/15 10:30:36;;;;;;;2.67;1.70;;;13.10;99.90;;;;;;5455975;26;20503;-72
2024/04/15 10:33:12;;;;;;;1.73;1.50;;;13.30;99.90;;;;;;5424138;26;20451;-72
2024/04/15 10:35:40;;;;;;;3.77;1.30;;;13.40;99.90;;;;;;5422999;26;20449;-74
2024/04/15 10:38:08;;;;;;;1.63;1.53;;;13.50;99.90;;;;;;5455134;26;20451;-72
2024/04/15 10:40:43;;;;;;;1.70;1.50;;;13.50;99.90;;;;;;5423985;26;21064;-74
2024/04/15 10:43:12;;;;;;;2.73;1.50;;;13.60;99.90;;;;;;5456079;26;20497;-74
2024/04/15 10:45:38;;;;;;;1.97;1.40;;;13.50;99.90;;;;;;5455768;26;20444;-72
2024/04/15 10:48:04;;;;;;;1.50;1.40;;;13.40;99.90;;;;;;5454316;26;20965;-73
2024/04/15 10:50:30;;;;;;;1.40;1.30;;;13.40;99.90;;;;;;5455629;26;20565;-74
2024/04/15 10:52:56;;;;;;;1.30;1.20;;;13.60;99.90;;;;;;5455720;26;20450;-74
2024/04/15 10:55:24;;;;;;;1.50;1.40;;;13.80;99.90;;;;;;5454279;26;20501;-73
2024/04/15 10:57:50;;;;;;;1.83;1.73;;;13.90;99.90;;;;;;5422560;26;20247;-74
2024/04/15 11:00:21;;;;;;;2.67;1.33;;;14.00;99.90;;;;;;5455403;26;21019;-74
2024/04/15 11:02:52;;;;;;;4.10;1.97;;;14.20;99.90;;;;;;5455429;26;20519;-73
2024/04/15 11:05:21;;;;;;;1.60;1.50;;;14.60;99.90;;;;;;5455265;26;20501;-74
2024/04/15 11:07:56;;;;;;;8.63;2.47;;;15.00;99.90;;;;;;5455134;26;20451;-74
2024/04/15 11:10:22;;;;;;;1.20;1.10;;;15.80;99.90;;;;;;5455662;26;20461;-72
2024/04/15 11:13:16;;;;;;;1.33;1.23;;;16.40;99.90;;;;;;5454329;26;20495;-73
2024/04/15 11:15:39;;;;;;;11.30;1.87;;;16.90;99.90;;;;;;5452817;26;20469;-74
2024/04/15 11:18:13;;;;;;;3.13;1.90;;;17.00;99.90;;;;;;5454337;26;20496;-74
2024/04/15 11:20:39;;;;;;;1.47;0.90;;;16.90;99.90;;;;;;5454387;26;21030;-75
2024/04/15 11:23:06;;;;;;;1.50;1.40;;;16.60;99.90;;;;;;5455274;26;20897;-72
2024/04/15 11:25:35;;;;;;;1.57;1.33;;;16.40;99.90;;;;;;5455148;26;20509;-74
2024/04/15 11:28:02;;;;;;;5.23;1.60;;;16.90;99.90;;;;;;5454195;26;20961;-73
2024/04/15 11:33:35;;;;;;;1.43;1.33;;;17.90;99.90;;;;;;5380054;26;20472;-74
2024/04/15 11:36:01;;;;;;;11.20;1.60;;;17.40;99.90;;;;;;5421925;26;20981;-74
2024/04/15 11:38:28;;;;;;;3.10;1.40;;;16.90;99.90;;;;;;5422351;26;20497;-70
2024/04/15 11:40:54;;;;;;;3.43;1.77;;;16.60;99.90;;;;;;5454963;26;20461;-72
2024/04/15 11:43:20;;;;;;;4.20;1.70;;;16.30;99.90;;;;;;5455170;26;20441;-74
2024/04/15 11:45:54;;;;;;;1.57;1.47;;;16.00;99.90;;;;;;5454959;26;20455;-74
2024/04/15 11:48:21;;;;;;;1.87;1.63;;;15.70;99.90;;;;;;5453665;26;20452;-72
2024/04/15 11:50:53;;;;;;;1.50;1.40;;;15.30;99.90;;;;;;5422342;26;20478;-71
2024/04/15 11:53:24;;;;;;;4.13;1.77;;;15.10;99.90;;;;;;5454782;26;20455;-74
2024/04/15 11:55:53;;;;;;;1.73;1.60;;;14.70;99.90;;;;;;5454724;26;20463;-74
2024/04/15 11:58:21;;;;;;;3.30;1.80;;;14.60;99.90;;;;;;5422096;26;20997;-72
2024/04/15 12:00:47;;;;;;;5.90;1.83;;;14.60;99.90;;;;;;5454492;26;20990;-72
2024/04/15 12:03:13;;;;;;;3.43;1.63;;;14.60;99.90;;;;;;5454677;26;20522;-73
2024/04/15 12:05:40;;;;;;;2.90;1.77;;;14.40;99.90;;;;;;5453591;26;20524;-72
2024/04/15 12:08:07;;;;;;;1.73;1.63;;;14.30;99.90;;;;;;5453503;26;20447;-74
2024/04/15 12:10:42;;;;;;;7.33;1.80;;;14.10;99.90;;;;;;5422890;26;20545;-72
2024/04/15 12:13:08;;;;;;;1.83;1.73;;;14.10;99.90;;;;;;5454785;26;20524;-74
2024/04/15 12:15:34;;;;;;;1.80;1.70;;;14.00;99.90;;;;;;5454428;26;20454;-72
2024/04/15 12:18:00;;;;;;;4.87;1.70;;;14.30;99.90;;;;;;5453300;26;20567;-73
2024/04/15 12:20:26;;;;;;;1.53;1.43;;;14.60;99.90;;;;;;5454477;26;20466;-74
2024/04/15 12:22:54;;;;;;;7.20;2.30;;;15.00;99.90;;;;;;5454377;26;20543;-74
2024/04/15 12:25:20;;;;;;;2.87;1.80;;;15.40;99.90;;;;;;5453442;26;20505;-72
2024/04/15 12:27:49;;;;;;;2.90;1.90;;;15.50;99.90;;;;;;5422221;26;20455;-74
2024/04/15 12:30:16;;;;;;;3.57;1.60;;;15.80;99.90;;;;;;5453991;26;20526;-72
2024/04/15 12:32:42;;;;;;;4.70;1.40;;;15.70;99.90;;;;;;5421059;26;20453;-72
2024/04/15 12:35:11;;;;;;;1.70;1.40;;;15.70;99.90;;;;;;5454400;26;20988;-72
2024/04/15 12:37:37;;;;;;;3.23;1.20;;;15.70;99.90;;;;;;5454234;26;20211;-72
2024/04/15 12:40:06;;;;;;;2.27;1.30;;;15.80;99.90;;;;;;5453025;26;20514;-71
2024/04/15 12:42:32;;;;;;;1.60;1.50;;;15.70;99.90;;;;;;5453154;26;20561;-74
2024/04/15 12:44:57;;;;;;;5.40;1.53;;;15.30;99.90;;;;;;5454148;26;20453;-72
2024/04/15 12:47:26;;;;;;;1.60;1.50;;;15.00;99.90;;;;;;5454030;26;20752;-72
2024/04/15 12:49:52;;;;;;;5.20;1.83;;;14.90;99.90;;;;;;5453008;26;20510;-74
2024/04/15 12:52:17;;;;;;;3.27;1.50;;;14.70;99.90;;;;;;5422097;26;20451;-72
2024/04/15 12:54:43;;;;;;;2.30;2.20;;;14.40;99.90;;;;;;5453736;26;20453;-71